createdAt,value
2022-09-25T00:00:44.801Z,45.75
2022-09-25T00:03:12.775Z,44.25
2022-09-25T00:05:41.240Z,38.30
2022-09-25T00:08:08.732Z,47.95
2022-09-25T00:10:40.168Z,44.33
2022-09-25T00:13:06.914Z,44.65
2022-09-25T00:15:33.430Z,46.22
2022-09-25T00:17:59.997Z,50.47
2022-09-25T00:20:26.690Z,55.90
2022-09-25T00:22:54.339Z,55.38
2022-09-25T00:25:20.945Z,47.75
2022-09-25T00:27:50.322Z,52.72
2022-09-25T00:30:16.978Z,46.40
2022-09-25T00:32:43.500Z,53.03
2022-09-25T00:35:10.107Z,48.60
2022-09-25T00:37:36.955Z,46.00
2022-09-25T00:40:05.778Z,45.95
2022-09-25T00:42:33.167Z,44.72
2022-09-25T00:45:03.244Z,60.45
2022-09-25T00:48:01.347Z,51.13
2022-09-25T00:50:34.103Z,46.85
2022-09-25T00:53:15.087Z,43.60
2022-09-25T00:55:43.731Z,48.70
2022-09-25T00:58:13.276Z,42.72
2022-09-25T01:00:40.340Z,48.58
2022-09-25T01:03:08.364Z,46.95
2022-09-25T01:05:37.373Z,43.38
2022-09-25T01:08:08.025Z,46.80
2022-09-25T01:10:35.964Z,42.92
2022-09-25T01:13:03.111Z,46.03
2022-09-25T01:15:47.879Z,46.97
2022-09-25T01:18:17.262Z,50.72
2022-09-25T01:20:52.606Z,45.35
2022-09-25T01:23:37.491Z,46.70
2022-09-25T01:26:14.930Z,45.08
2022-09-25T01:29:04.495Z,48.55
2022-09-25T01:32:06.445Z,44.05
2022-09-25T01:35:01.086Z,46.03
2022-09-25T01:37:46.712Z,46.30
2022-09-25T01:40:25.413Z,43.75
2022-09-25T01:43:09.002Z,47.83
2022-09-25T01:45:54.638Z,44.65
2022-09-25T01:48:26.008Z,51.42
2022-09-25T01:51:03.393Z,43.28
2022-09-25T01:53:35.756Z,48.00
2022-09-25T01:56:09.314Z,47.55
2022-09-25T01:58:43.211Z,45.47
2022-09-25T02:01:14.927Z,43.25
2022-09-25T02:03:52.222Z,46.90
2022-09-25T02:06:20.980Z,49.13
2022-09-25T02:09:01.126Z,50.80
2022-09-25T02:11:33.858Z,49.08
2022-09-25T02:14:09.963Z,54.85
2022-09-25T02:16:43.475Z,49.13
2022-09-25T02:19:34.789Z,65.47
2022-09-25T02:22:10.156Z,49.25
2022-09-25T02:24:47.201Z,56.05
2022-09-25T02:27:14.859Z,56.13
2022-09-25T02:29:42.747Z,51.22
2022-09-25T02:32:12.411Z,53.00
2022-09-25T02:34:39.644Z,55.95
2022-09-25T02:37:13.809Z,50.80
2022-09-25T02:39:42.484Z,53.03
2022-09-25T02:42:38.395Z,46.67
2022-09-25T02:45:16.114Z,53.08
2022-09-25T02:48:23.991Z,47.17
2022-09-25T02:50:56.539Z,48.78
2022-09-25T02:53:42.549Z,56.13
2022-09-25T02:56:14.652Z,54.40
2022-09-25T02:58:46.651Z,52.92
2022-09-25T03:01:16.733Z,55.45
2022-09-25T03:03:45.805Z,55.03
2022-09-25T03:06:12.718Z,50.05
2022-09-25T03:08:46.466Z,58.08
2022-09-25T03:11:17.722Z,47.08
2022-09-25T03:13:44.609Z,51.75
2022-09-25T03:16:11.353Z,48.20
2022-09-25T03:18:38.199Z,49.85
2022-09-25T03:21:05.059Z,49.13
2022-09-25T03:23:35.045Z,53.95
2022-09-25T03:26:01.826Z,44.33
2022-09-25T03:28:28.586Z,49.25
2022-09-25T03:30:56.829Z,49.83
2022-09-25T03:33:23.514Z,42.83
2022-09-25T03:36:00.195Z,51.15
2022-09-25T03:38:26.927Z,48.22
2022-09-25T03:40:53.495Z,45.20
2022-09-25T03:43:20.196Z,43.20
2022-09-25T03:45:46.828Z,40.22
2022-09-25T03:48:13.397Z,41.92
2022-09-25T03:50:40.421Z,42.08
2022-09-25T03:53:06.998Z,42.92
2022-09-25T03:55:33.665Z,44.85
2022-09-25T03:58:00.192Z,43.97
2022-09-25T04:00:26.728Z,41.33
2022-09-25T04:02:53.311Z,42.15
2022-09-25T04:05:20.187Z,41.38
2022-09-25T04:07:46.708Z,47.58
2022-09-25T04:10:14.759Z,42.17
2022-09-25T04:12:42.629Z,47.97
2022-09-25T04:15:10.029Z,42.30
2022-09-25T04:17:36.570Z,39.22
2022-09-25T04:20:03.255Z,39.83
2022-09-25T04:22:29.829Z,39.22
2022-09-25T04:24:57.218Z,35.95
2022-09-25T04:27:24.286Z,35.83
2022-09-25T04:29:50.827Z,40.22
2022-09-25T04:32:36.079Z,54.45
2022-09-25T04:35:02.886Z,38.67
2022-09-25T04:37:29.558Z,37.70
2022-09-25T04:39:57.633Z,43.30
2022-09-25T04:42:25.399Z,48.30
2022-09-25T04:44:53.642Z,43.85
2022-09-25T04:47:21.163Z,39.72
2022-09-25T04:49:48.384Z,38.22
2022-09-25T04:52:16.336Z,35.90
2022-09-25T04:54:43.410Z,37.05
2022-09-25T04:57:23.351Z,36.88
2022-09-25T04:59:59.456Z,38.35
2022-09-25T05:02:29.073Z,36.20
2022-09-25T05:04:55.657Z,35.47
2022-09-25T05:07:22.342Z,39.60
2022-09-25T05:09:49.038Z,38.15
2022-09-25T05:12:15.918Z,40.60
2022-09-25T05:14:43.049Z,41.65
2022-09-25T05:17:10.855Z,40.80
2022-09-25T05:19:38.717Z,42.55
2022-09-25T05:22:05.483Z,35.67
2022-09-25T05:24:32.136Z,36.28
2022-09-25T05:26:59.073Z,37.03
2022-09-25T05:29:25.647Z,33.55
2022-09-25T05:31:52.237Z,33.67
2022-09-25T05:34:18.806Z,38.42
2022-09-25T05:36:47.135Z,36.30
2022-09-25T05:39:14.756Z,38.88
2022-09-25T05:41:41.533Z,34.67
2022-09-25T05:44:09.945Z,34.17
2022-09-25T05:46:37.062Z,34.38
2022-09-25T05:49:04.410Z,39.30
2022-09-25T05:51:32.145Z,47.47
2022-09-25T05:54:00.349Z,48.05
2022-09-25T05:56:26.916Z,51.67
2022-09-25T05:58:55.032Z,41.05
2022-09-25T06:01:21.801Z,46.55
2022-09-25T06:03:48.400Z,39.92
2022-09-25T06:06:15.152Z,36.92
2022-09-25T06:08:41.831Z,37.70
2022-09-25T06:11:08.696Z,37.63
2022-09-25T06:13:36.868Z,36.53
2022-09-25T06:16:05.532Z,39.17
2022-09-25T06:18:33.402Z,44.72
2022-09-25T06:21:05.002Z,38.63
2022-09-25T06:23:32.067Z,41.53
2022-09-25T06:26:03.146Z,37.85
2022-09-25T06:28:31.105Z,35.22
2022-09-25T06:31:01.111Z,36.83
2022-09-25T06:33:27.752Z,40.28
2022-09-25T06:35:55.327Z,37.33
2022-09-25T06:38:21.997Z,40.80
2022-09-25T06:40:48.668Z,37.97
2022-09-25T06:43:16.556Z,39.38
2022-09-25T06:45:43.949Z,38.97
2022-09-25T06:48:13.300Z,36.10
2022-09-25T06:50:44.781Z,37.25
2022-09-25T06:53:12.259Z,39.20
2022-09-25T06:55:39.522Z,42.80
2022-09-25T06:58:08.431Z,39.13
2022-09-25T07:00:35.028Z,43.50
2022-09-25T07:03:20.493Z,42.92
2022-09-25T07:05:48.285Z,41.67
2022-09-25T07:08:16.645Z,51.25
2022-09-25T07:10:56.838Z,47.53
2022-09-25T07:13:30.047Z,47.00
2022-09-25T07:15:59.072Z,44.53
2022-09-25T07:18:26.991Z,47.17
2022-09-25T07:20:54.471Z,44.75
2022-09-25T07:23:22.485Z,45.72
2022-09-25T07:25:49.493Z,55.03
2022-09-25T07:28:19.110Z,49.95
2022-09-25T07:30:46.070Z,45.33
2022-09-25T07:33:13.084Z,43.63
2022-09-25T07:35:39.987Z,41.60
2022-09-25T07:38:06.499Z,39.55
2022-09-25T07:40:35.517Z,41.80
2022-09-25T07:43:03.256Z,38.08
2022-09-25T07:45:30.050Z,37.85
2022-09-25T07:48:01.595Z,41.75
2022-09-25T07:50:32.018Z,46.80
2022-09-25T07:52:59.241Z,43.63
2022-09-25T07:55:28.182Z,33.63
2022-09-25T07:57:57.548Z,35.45
2022-09-25T08:00:24.327Z,42.38
2022-09-25T08:03:00.159Z,40.65
2022-09-25T08:05:27.471Z,42.45
2022-09-25T08:07:54.516Z,33.53
2022-09-25T08:10:21.909Z,38.25
2022-09-25T08:12:48.866Z,32.92
2022-09-25T08:15:15.855Z,29.58
2022-09-25T08:17:42.874Z,42.42
2022-09-25T08:20:10.236Z,27.67
2022-09-25T08:22:37.109Z,25.88
2022-09-25T08:25:03.925Z,25.67
2022-09-25T08:27:31.511Z,28.33
2022-09-25T08:29:58.429Z,41.50
2022-09-25T08:32:24.977Z,31.25
2022-09-25T08:34:51.573Z,21.15
2022-09-25T08:37:19.641Z,30.67
2022-09-25T08:39:46.291Z,35.15
2022-09-25T08:42:19.976Z,35.00
2022-09-25T08:45:21.230Z,33.22
2022-09-25T08:48:13.661Z,28.02
2022-09-25T08:50:40.303Z,19.30
2022-09-25T08:53:14.990Z,27.20
2022-09-25T08:56:00.324Z,27.45
2022-09-25T08:58:30.884Z,20.73
2022-09-25T09:01:09.141Z,36.08
2022-09-25T09:03:46.150Z,38.35
2022-09-25T09:06:15.910Z,22.63
2022-09-25T09:08:46.795Z,24.20
2022-09-25T09:11:18.186Z,27.77
2022-09-25T09:13:54.001Z,39.25
2022-09-25T09:16:26.642Z,28.20
2022-09-25T09:18:55.307Z,25.35
2022-09-25T09:21:30.732Z,45.90
2022-09-25T09:24:08.871Z,26.17
2022-09-25T09:27:04.307Z,37.38
2022-09-25T09:29:53.119Z,37.40
2022-09-25T09:32:37.744Z,53.25
2022-09-25T09:35:31.227Z,49.97
2022-09-25T09:38:40.272Z,56.05
2022-09-25T09:41:13.063Z,36.55
2022-09-25T09:44:02.979Z,88.38
2022-09-25T09:46:48.712Z,56.00
2022-09-25T09:49:37.015Z,31.48
2022-09-25T09:52:12.185Z,21.30
2022-09-25T09:54:47.802Z,23.88
2022-09-25T09:57:31.297Z,23.77
2022-09-25T10:00:05.385Z,22.85
2022-09-25T10:02:42.052Z,25.33
2022-09-25T10:05:26.634Z,28.10
2022-09-25T10:07:53.653Z,26.23
2022-09-25T10:10:23.466Z,26.55
2022-09-25T10:12:52.947Z,24.08
2022-09-25T10:15:33.874Z,21.55
2022-09-25T10:18:03.213Z,24.35
2022-09-25T10:20:40.252Z,21.95
2022-09-25T10:23:19.951Z,20.00
2022-09-25T10:25:46.627Z,21.38
2022-09-25T10:28:28.403Z,19.40
2022-09-25T10:30:57.018Z,20.67
2022-09-25T10:33:26.148Z,21.02
2022-09-25T10:35:55.076Z,20.45
2022-09-25T10:38:39.007Z,19.00
2022-09-25T10:41:18.089Z,18.80
2022-09-25T10:43:56.238Z,27.15
2022-09-25T10:46:49.651Z,19.75
2022-09-25T10:49:43.661Z,23.63
2022-09-25T10:52:13.134Z,20.30
2022-09-25T10:54:44.757Z,18.42
2022-09-25T10:57:34.477Z,16.13
2022-09-25T11:00:03.523Z,15.57
2022-09-25T11:02:41.588Z,13.77
2022-09-25T11:05:17.371Z,15.80
2022-09-25T11:07:52.452Z,12.73
2022-09-25T11:10:30.769Z,11.30
2022-09-25T11:12:58.539Z,10.30
2022-09-25T11:15:27.538Z,9.63
2022-09-25T11:17:56.502Z,9.38
2022-09-25T11:20:32.191Z,10.85
2022-09-25T11:23:28.303Z,8.93
2022-09-25T11:26:08.915Z,7.97
2022-09-25T11:28:42.473Z,8.35
2022-09-25T11:31:24.742Z,6.80
2022-09-25T11:34:31.867Z,7.35
2022-09-25T11:37:36.887Z,9.05
2022-09-25T11:40:50.282Z,10.63
2022-09-25T11:43:26.161Z,7.63
2022-09-25T11:46:02.739Z,7.60
2022-09-25T11:48:54.602Z,6.10
2022-09-25T11:52:02.322Z,6.10
2022-09-25T11:54:56.593Z,5.47
2022-09-25T11:57:38.802Z,7.50
2022-09-25T12:00:22.074Z,4.53
2022-09-25T12:02:48.678Z,5.50
2022-09-25T12:05:29.974Z,5.40
2022-09-25T12:08:15.688Z,4.32
2022-09-25T12:10:59.726Z,3.92
2022-09-25T12:13:39.037Z,3.47
2022-09-25T12:16:17.075Z,4.00
2022-09-25T12:18:49.505Z,9.13
2022-09-25T12:21:39.001Z,18.80
2022-09-25T12:24:18.569Z,19.65
2022-09-25T12:27:26.499Z,8.18
2022-09-25T12:30:11.986Z,9.98
2022-09-25T12:32:58.196Z,21.08
2022-09-25T12:35:46.640Z,16.92
2022-09-25T12:38:19.227Z,19.55
2022-09-25T12:40:56.407Z,15.45
2022-09-25T12:43:24.267Z,7.25
2022-09-25T12:46:12.756Z,4.80
2022-09-25T12:48:50.541Z,5.32
2022-09-25T12:51:26.016Z,4.65
2022-09-25T12:54:00.751Z,3.97
2022-09-25T12:56:41.836Z,5.00
2022-09-25T12:59:23.717Z,4.82
2022-09-25T13:02:25.978Z,6.03
2022-09-25T13:05:06.989Z,5.65
2022-09-25T13:07:38.396Z,8.55
2022-09-25T13:10:26.827Z,8.48
2022-09-25T13:12:57.089Z,6.00
2022-09-25T13:15:30.883Z,4.90
2022-09-25T13:17:59.143Z,5.60
2022-09-25T13:20:28.841Z,8.95
2022-09-25T13:23:03.636Z,6.75
2022-09-25T13:25:39.399Z,11.63
2022-09-25T13:28:07.979Z,11.25
2022-09-25T13:30:34.804Z,9.55
2022-09-25T13:33:03.309Z,9.18
2022-09-25T13:35:32.560Z,8.15
2022-09-25T13:38:40.240Z,6.07
2022-09-25T13:41:12.339Z,8.27
2022-09-25T13:43:39.111Z,11.15
2022-09-25T13:46:19.978Z,10.07
2022-09-25T13:48:46.643Z,9.13
2022-09-25T13:51:22.293Z,6.80
2022-09-25T13:54:04.552Z,5.68
2022-09-25T13:56:33.860Z,7.70
2022-09-25T13:59:07.825Z,8.68
2022-09-25T14:01:40.469Z,4.50
2022-09-25T14:04:16.493Z,4.20
2022-09-25T14:06:45.757Z,3.60
2022-09-25T14:09:15.151Z,4.55
2022-09-25T14:11:50.643Z,4.43
2022-09-25T14:14:30.076Z,4.30
2022-09-25T14:16:58.706Z,3.88
2022-09-25T14:19:30.220Z,2.63
2022-09-25T14:21:58.458Z,3.10
2022-09-25T14:24:30.984Z,2.58
2022-09-25T14:27:01.889Z,3.05
2022-09-25T14:29:43.153Z,8.50
2022-09-25T14:32:53.893Z,5.93
2022-09-25T14:35:30.693Z,5.03
2022-09-25T14:38:14.832Z,3.58
2022-09-25T14:41:05.415Z,3.88
2022-09-25T14:43:49.709Z,3.20
2022-09-25T14:46:20.912Z,3.53
2022-09-25T14:48:59.127Z,3.00
2022-09-25T14:51:31.672Z,4.97
2022-09-25T14:54:03.393Z,4.63
2022-09-25T14:56:33.327Z,4.05
2022-09-25T14:59:06.561Z,3.83
2022-09-25T15:01:33.529Z,3.30
2022-09-25T15:04:03.299Z,4.68
2022-09-25T15:06:32.879Z,2.70
2022-09-25T15:09:03.120Z,2.80
2022-09-25T15:11:42.688Z,2.97
2022-09-25T15:14:12.187Z,2.70
2022-09-25T15:16:57.963Z,3.22
2022-09-25T15:19:33.226Z,2.90
2022-09-25T15:22:00.039Z,3.30
2022-09-25T15:24:30.890Z,2.33
2022-09-25T15:27:04.580Z,2.70
2022-09-25T15:29:35.932Z,2.92
2022-09-25T15:32:03.589Z,2.90
2022-09-25T15:34:32.974Z,3.50
2022-09-25T15:37:26.395Z,3.42
2022-09-25T15:39:53.709Z,3.47
2022-09-25T15:42:20.723Z,3.08
2022-09-25T15:44:48.839Z,3.38
2022-09-25T15:47:37.128Z,3.63
2022-09-25T15:50:06.306Z,3.67
2022-09-25T15:52:34.074Z,3.67
2022-09-25T15:55:15.725Z,3.92
2022-09-25T15:57:42.366Z,3.83
2022-09-25T16:00:37.056Z,3.63
2022-09-25T16:03:42.452Z,3.55
2022-09-25T16:06:16.681Z,4.63
2022-09-25T16:08:44.079Z,3.33
2022-09-25T16:11:21.815Z,3.75
2022-09-25T16:14:28.594Z,3.45
2022-09-25T16:16:56.150Z,3.42
2022-09-25T16:19:22.621Z,3.85
2022-09-25T16:21:49.381Z,3.55
2022-09-25T16:24:21.967Z,3.20
2022-09-25T16:26:55.354Z,3.45
2022-09-25T16:29:25.688Z,4.32
2022-09-25T16:31:54.085Z,3.70
2022-09-25T16:34:28.886Z,5.13
2022-09-25T16:37:00.013Z,3.50
2022-09-25T16:39:38.767Z,3.92
2022-09-25T16:42:29.547Z,3.35
2022-09-25T16:45:14.187Z,4.07
2022-09-25T16:47:46.843Z,4.88
2022-09-25T16:50:16.242Z,4.32
2022-09-25T16:52:43.951Z,4.63
2022-09-25T16:55:23.266Z,3.67
2022-09-25T16:57:51.668Z,4.55
2022-09-25T17:00:21.835Z,4.28
2022-09-25T17:02:48.690Z,4.38
2022-09-25T17:05:19.364Z,4.07
2022-09-25T17:07:48.086Z,4.53
2022-09-25T17:10:20.303Z,4.47
2022-09-25T17:12:53.544Z,4.35
2022-09-25T17:15:27.517Z,5.18
2022-09-25T17:17:54.485Z,5.00
2022-09-25T17:20:23.573Z,5.05
2022-09-25T17:22:54.307Z,4.88
2022-09-25T17:25:38.766Z,5.00
2022-09-25T17:28:07.152Z,5.03
2022-09-25T17:30:34.171Z,6.28
2022-09-25T17:33:05.288Z,5.05
2022-09-25T17:36:04.158Z,4.47
2022-09-25T17:38:34.216Z,5.30
2022-09-25T17:41:06.737Z,5.65
2022-09-25T17:43:33.950Z,5.85
2022-09-25T17:46:01.226Z,6.68
2022-09-25T17:48:30.742Z,5.65
2022-09-25T17:51:02.849Z,4.82
2022-09-25T17:53:32.201Z,5.05
2022-09-25T17:56:00.208Z,5.15
2022-09-25T17:58:28.955Z,4.03
2022-09-25T18:00:59.363Z,3.42
2022-09-25T18:03:26.798Z,3.47
2022-09-25T18:05:53.364Z,3.55
2022-09-25T18:08:19.934Z,3.75
2022-09-25T18:10:46.668Z,4.03
2022-09-25T18:13:15.591Z,5.30
2022-09-25T18:15:48.551Z,5.40
2022-09-25T18:18:15.538Z,4.67
2022-09-25T18:21:05.711Z,4.78
2022-09-25T18:23:35.763Z,5.28
2022-09-25T18:26:04.091Z,5.50
2022-09-25T18:28:31.261Z,4.70
2022-09-25T18:30:58.905Z,3.92
2022-09-25T18:33:25.584Z,3.63
2022-09-25T18:35:53.083Z,3.65
2022-09-25T18:38:19.581Z,2.97
2022-09-25T18:40:46.155Z,3.25
2022-09-25T18:43:12.994Z,3.70
2022-09-25T18:45:40.331Z,4.25
2022-09-25T18:48:06.917Z,3.47
2022-09-25T18:50:33.503Z,3.42
2022-09-25T18:53:00.765Z,2.83
2022-09-25T18:55:27.569Z,3.33
2022-09-25T18:57:54.965Z,3.58
2022-09-25T19:00:22.172Z,3.83
2022-09-25T19:02:48.827Z,4.35
2022-09-25T19:05:17.211Z,3.45
2022-09-25T19:07:43.747Z,6.57
2022-09-25T19:10:10.937Z,3.63
2022-09-25T19:12:37.577Z,4.13
2022-09-25T19:15:04.816Z,3.97
2022-09-25T19:17:31.981Z,3.80
2022-09-25T19:19:58.620Z,4.10
2022-09-25T19:22:25.743Z,3.75
2022-09-25T19:24:56.789Z,4.90
2022-09-25T19:27:25.507Z,4.45
2022-09-25T19:29:52.131Z,4.70
2022-09-25T19:32:19.037Z,5.10
2022-09-25T19:34:45.625Z,4.70
2022-09-25T19:37:12.317Z,4.43
2022-09-25T19:40:00.278Z,5.38
2022-09-25T19:42:28.196Z,4.07
2022-09-25T19:44:55.974Z,4.85
2022-09-25T19:47:23.530Z,4.82
2022-09-25T19:49:50.053Z,4.20
2022-09-25T19:52:17.139Z,6.18
2022-09-25T19:54:43.673Z,7.47
2022-09-25T19:57:10.519Z,6.75
2022-09-25T19:59:37.038Z,7.13
2022-09-25T20:02:03.850Z,10.13
2022-09-25T20:04:30.535Z,8.77
2022-09-25T20:06:58.860Z,7.65
2022-09-25T20:09:28.548Z,7.68
2022-09-25T20:11:55.063Z,6.93
2022-09-25T20:14:25.612Z,6.13
2022-09-25T20:16:54.014Z,6.15
2022-09-25T20:19:20.998Z,5.20
2022-09-25T20:21:47.951Z,5.00
2022-09-25T20:24:14.532Z,5.03
2022-09-25T20:26:41.165Z,4.88
2022-09-25T20:29:12.165Z,4.35
2022-09-25T20:31:41.236Z,4.95
2022-09-25T20:34:12.359Z,5.35
2022-09-25T20:36:39.217Z,4.70
2022-09-25T20:39:06.674Z,4.03
2022-09-25T20:41:33.708Z,4.22
2022-09-25T20:44:00.546Z,4.53
2022-09-25T20:46:27.550Z,5.38
2022-09-25T20:48:57.491Z,4.57
2022-09-25T20:51:27.579Z,4.07
2022-09-25T20:53:59.784Z,4.07
2022-09-25T20:56:27.989Z,3.95
2022-09-25T20:58:56.324Z,4.20
2022-09-25T21:01:26.921Z,5.25
2022-09-25T21:03:54.167Z,4.20
2022-09-25T21:06:23.547Z,4.22
2022-09-25T21:08:54.837Z,3.80
2022-09-25T21:11:22.563Z,4.03
2022-09-25T21:13:54.149Z,4.78
2022-09-25T21:16:22.087Z,4.40
2022-09-25T21:18:54.916Z,5.97
2022-09-25T21:21:23.153Z,6.55
2022-09-25T21:23:54.255Z,9.07
2022-09-25T21:26:23.165Z,8.13
2022-09-25T21:28:51.853Z,6.32
2022-09-25T21:31:23.988Z,7.10
2022-09-25T21:33:52.956Z,5.38
2022-09-25T21:36:21.017Z,5.25
2022-09-25T21:38:49.190Z,4.93
2022-09-25T21:41:18.021Z,5.63
2022-09-25T21:43:45.323Z,5.20
2022-09-25T21:46:14.686Z,6.95
2022-09-25T21:48:48.273Z,6.85
2022-09-25T21:51:15.512Z,7.63
2022-09-25T21:53:42.277Z,6.60
2022-09-25T21:56:28.635Z,6.63
2022-09-25T21:58:56.759Z,6.40
2022-09-25T22:01:26.493Z,5.28
2022-09-25T22:03:55.491Z,5.25
2022-09-25T22:06:34.218Z,5.43
2022-09-25T22:09:22.521Z,6.50
2022-09-25T22:11:49.628Z,5.03
2022-09-25T22:14:16.914Z,5.57
2022-09-25T22:16:46.666Z,5.95
2022-09-25T22:19:15.285Z,6.18
2022-09-25T22:21:43.258Z,6.07
2022-09-25T22:24:10.636Z,6.25
2022-09-25T22:26:39.699Z,6.20
2022-09-25T22:29:06.454Z,5.50
2022-09-25T22:31:34.874Z,6.45
2022-09-25T22:34:07.224Z,5.55
2022-09-25T22:36:36.382Z,6.18
2022-09-25T22:39:04.952Z,5.53
2022-09-25T22:41:32.523Z,6.13
2022-09-25T22:44:00.937Z,6.68
2022-09-25T22:46:28.513Z,5.13
2022-09-25T22:48:55.160Z,5.78
2022-09-25T22:51:23.706Z,5.20
2022-09-25T22:53:51.411Z,6.15
2022-09-25T22:56:32.593Z,5.93
2022-09-25T22:59:05.881Z,6.78
2022-09-25T23:01:39.875Z,6.05
2022-09-25T23:06:35.331Z,5.35
2022-09-25T23:09:05.286Z,4.90
2022-09-25T23:11:32.482Z,5.35
2022-09-25T23:14:03.138Z,6.22
2022-09-25T23:16:31.391Z,5.30
2022-09-25T23:18:58.696Z,5.55
2022-09-25T23:21:26.536Z,5.90
2022-09-25T23:24:00.417Z,4.90
2022-09-25T23:26:27.840Z,5.90
2022-09-25T23:28:54.519Z,6.18
2022-09-25T23:31:21.813Z,5.60
2022-09-25T23:33:48.886Z,6.18
2022-09-25T23:36:19.583Z,6.18
2022-09-25T23:38:47.246Z,7.47
2022-09-25T23:41:16.124Z,6.75
2022-09-25T23:43:43.345Z,7.07
2022-09-25T23:46:10.458Z,7.40
2022-09-25T23:48:37.139Z,6.50
2022-09-25T23:51:03.970Z,7.55
2022-09-25T23:53:30.759Z,8.05
2022-09-25T23:55:57.308Z,8.10
2022-09-25T23:58:23.883Z,8.32
